Time,TemperatureF,DewpointF,PressureIn,WindDirection,WindDirectionDegrees,WindSpeedMPH,WindSpeedGustMPH,Humidity,HourlyPrecipIn,Conditions,Clouds,dailyrainin,SoftwareType,DateUTC
2013-12-20 00:02:00,19.0,8.0,-100.00,North,-999,0.0,1.0,62,-99.99,,,-99.99,,2013-12-20 08:02:00,
2013-12-20 08:53:00,8.0,-1.0,-100.00,ESE,113,2.0,3.0,65,-99.99,,,-99.99,,2013-12-20 16:53:00,
2013-12-20 09:02:00,8.0,-1.0,-100.00,ESE,113,2.0,3.0,65,-99.99,,,-99.99,,2013-12-20 17:02:00,
2013-12-20 10:12:00,16.0,3.0,-100.00,WNW,292,1.0,3.0,57,-99.99,,,-99.99,,2013-12-20 18:12:00,
2013-12-20 10:22:00,17.0,4.0,-100.00,North,10,2.0,3.0,56,-99.99,,,-99.99,,2013-12-20 18:22:00,
2013-12-20 10:32:00,17.0,4.0,-100.00,North,10,2.0,3.0,56,-99.99,,,-99.99,,2013-12-20 18:32:00,
2013-12-20 10:42:00,17.0,4.0,-100.00,North,10,2.0,3.0,56,-99.99,,,-99.99,,2013-12-20 18:42:00,
2013-12-20 10:52:00,19.0,5.0,-100.00,North,6,2.0,4.0,54,-99.99,,,-99.99,,2013-12-20 18:52:00,
2013-12-20 11:02:00,19.0,5.0,-100.00,North,6,2.0,4.0,54,-99.99,,,-99.99,,2013-12-20 19:02:00,
2013-12-20 12:11:00,24.0,8.0,-100.00,SW,234,2.0,3.0,49,-99.99,,,-99.99,,2013-12-20 20:11:00,
2013-12-20 12:21:00,25.0,10.0,-100.00,WSW,254,3.0,3.0,52,-99.99,,,-99.99,,2013-12-20 20:21:00,
2013-12-20 12:42:00,26.0,9.0,-100.00,WSW,246,3.0,5.0,49,-99.99,,,-99.99,,2013-12-20 20:42:00,
2013-12-20 12:52:00,26.0,9.0,-100.00,WSW,246,3.0,5.0,49,-99.99,,,-99.99,,2013-12-20 20:52:00,
2013-12-20 13:02:00,26.0,9.0,-100.00,WSW,246,3.0,5.0,49,-99.99,,,-99.99,,2013-12-20 21:02:00,
2013-12-20 13:22:00,28.0,11.0,-100.00,West,271,3.0,5.0,49,-99.99,,,-99.99,,2013-12-20 21:22:00,
2013-12-20 13:33:00,28.0,11.0,-100.00,West,271,3.0,5.0,49,-99.99,,,-99.99,,2013-12-20 21:33:00,
2013-12-20 13:43:00,28.0,11.0,-100.00,West,271,3.0,5.0,49,-99.99,,,-99.99,,2013-12-20 21:43:00,
2013-12-20 13:53:00,29.0,11.0,-100.00,WSW,251,2.0,3.0,46,-99.99,,,-99.99,,2013-12-20 21:53:00,
2013-12-20 14:03:00,29.0,11.0,-100.00,WSW,251,2.0,3.0,46,-99.99,,,-99.99,,2013-12-20 22:03:00,
2013-12-20 14:23:00,31.0,12.0,-100.00,South,184,1.0,2.0,44,-99.99,,,-99.99,,2013-12-20 22:23:00,
2013-12-20 14:43:00,32.0,14.0,-100.00,WNW,285,3.0,5.0,47,-99.99,,,-99.99,,2013-12-20 22:43:00,
2013-12-20 15:12:00,31.0,12.0,-100.00,West,260,2.0,5.0,45,-99.99,,,-99.99,,2013-12-20 23:12:00,
2013-12-20 15:22:00,31.0,13.0,-100.00,SW,229,1.0,3.0,47,-99.99,,,-99.99,,2013-12-20 23:22:00,
2013-12-20 15:33:00,31.0,13.0,-100.00,SW,229,1.0,3.0,47,-99.99,,,-99.99,,2013-12-20 23:33:00,
2013-12-20 15:42:00,31.0,13.0,-100.00,SW,229,1.0,3.0,47,-99.99,,,-99.99,,2013-12-20 23:42:00,
2013-12-20 15:53:00,31.0,14.0,-100.00,WSW,251,1.0,2.0,49,-99.99,,,-99.99,,2013-12-20 23:53:00,
2013-12-20 16:02:00,31.0,14.0,-100.00,WSW,251,1.0,2.0,49,-99.99,,,-99.99,,2013-12-21 00:02:00,
2013-12-20 16:22:00,30.0,14.0,-100.00,West,261,4.0,5.0,50,-99.99,,,-99.99,,2013-12-21 00:22:00,
2013-12-20 16:42:00,30.0,14.0,-100.00,WNW,288,2.0,3.0,51,-99.99,,,-99.99,,2013-12-21 00:42:00,
2013-12-20 17:11:00,27.0,13.0,-100.00,WSW,243,1.0,1.0,56,-99.99,,,-99.99,,2013-12-21 01:11:00,
2013-12-20 17:22:00,26.0,12.0,-100.00,SSW,205,1.0,2.0,56,-99.99,,,-99.99,,2013-12-21 01:22:00,
2013-12-20 17:32:00,26.0,12.0,-100.00,SSW,205,1.0,2.0,56,-99.99,,,-99.99,,2013-12-21 01:32:00,
2013-12-20 17:42:00,26.0,12.0,-100.00,SSW,205,1.0,2.0,56,-99.99,,,-99.99,,2013-12-21 01:42:00,
2013-12-20 17:52:00,24.0,12.0,-100.00,North,-999,0.0,1.0,60,-99.99,,,-99.99,,2013-12-21 01:52:00,
2013-12-20 18:01:00,24.0,12.0,-100.00,North,-999,0.0,1.0,60,-99.99,,,-99.99,,2013-12-21 02:01:00,
2013-12-20 18:42:00,23.0,12.0,-100.00,SSE,164,1.0,2.0,61,-99.99,,,-99.99,,2013-12-21 02:42:00,
2013-12-20 19:21:00,22.0,12.0,-100.00,East,89,1.0,2.0,64,-99.99,,,-99.99,,2013-12-21 03:21:00,
2013-12-20 19:33:00,22.0,12.0,-100.00,East,89,1.0,2.0,64,-99.99,,,-99.99,,2013-12-21 03:33:00,
2013-12-20 19:53:00,22.0,12.0,-100.00,North,-999,0.0,0.0,64,-99.99,,,-99.99,,2013-12-21 03:53:00,
2013-12-20 20:12:00,23.0,13.0,-100.00,SE,128,3.0,4.0,64,-99.99,,,-99.99,,2013-12-21 04:12:00,
2013-12-20 20:22:00,23.0,13.0,-100.00,SE,128,3.0,4.0,64,-99.99,,,-99.99,,2013-12-21 04:22:00,
2013-12-20 20:43:00,23.0,13.0,-100.00,East,85,2.0,3.0,64,-99.99,,,-99.99,,2013-12-21 04:43:00,
2013-12-20 22:12:00,21.0,11.0,-100.00,ENE,62,3.0,5.0,66,-99.99,,,-99.99,,2013-12-21 06:12:00,
2013-12-20 22:21:00,21.0,10.0,-100.00,SE,133,1.0,2.0,63,-99.99,,,-99.99,,2013-12-21 06:21:00,
2013-12-20 22:42:00,21.0,11.0,-100.00,North,-999,0.0,1.0,64,-99.99,,,-99.99,,2013-12-21 06:42:00,